sensor_id;sensor_type;location;lat;lon;timestamp;temperature;humidity
22288;DHT22;11312;51.464;6.968;2024-01-30T00:02:17;10.30;99.90
22288;DHT22;11312;51.464;6.968;2024-01-30T00:04:42;10.30;99.90
22288;DHT22;11312;51.464;6.968;2024-01-30T00:07:08;10.30;99.90
22288;DHT22;11312;51.464;6.968;2024-01-30T00:09:33;10.20;99.90
22288;DHT22;11312;51.464;6.968;2024-01-30T00:11:59;10.20;99.90
22288;DHT22;11312;51.464;6.968;2024-01-30T00:14:25;10.20;99.90
22288;DHT22;11312;51.464;6.968;2024-01-30T00:16:51;10.30;99.90
22288;DHT22;11312;51.464;6.968;2024-01-30T00:19:17;10.20;99.90
22288;DHT22;11312;51.464;6.968;2024-01-30T00:21:42;10.20;99.90
22288;DHT22;11312;51.464;6.968;2024-01-30T00:24:08;10.20;99.90
22288;DHT22;11312;51.464;6.968;2024-01-30T00:26:34;10.20;99.90
22288;DHT22;11312;51.464;6.968;2024-01-30T00:29:01;10.20;99.90
22288;DHT22;11312;51.464;6.968;2024-01-30T00:31:27;10.20;99.90
22288;DHT22;11312;51.464;6.968;2024-01-30T00:33:52;10.20;99.90
22288;DHT22;11312;51.464;6.968;2024-01-30T00:36:18;10.20;99.90
22288;DHT22;11312;51.464;6.968;2024-01-30T00:38:44;10.30;99.90
22288;DHT22;11312;51.464;6.968;2024-01-30T00:41:09;10.20;99.90
22288;DHT22;11312;51.464;6.968;2024-01-30T00:43:35;10.30;99.90
22288;DHT22;11312;51.464;6.968;2024-01-30T00:46:01;10.60;99.90
22288;DHT22;11312;51.464;6.968;2024-01-30T00:48:26;10.20;99.90
22288;DHT22;11312;51.464;6.968;2024-01-30T00:50:52;10.20;99.90
22288;DHT22;11312;51.464;6.968;2024-01-30T00:53:18;10.20;99.90
22288;DHT22;11312;51.464;6.968;2024-01-30T00:55:43;10.20;99.90
22288;DHT22;11312;51.464;6.968;2024-01-30T00:58:09;10.20;99.90
22288;DHT22;11312;51.464;6.968;2024-01-30T01:00:34;10.20;99.90
22288;DHT22;11312;51.464;6.968;2024-01-30T01:03:00;10.20;99.90
22288;DHT22;11312;51.464;6.968;2024-01-30T01:05:26;10.30;99.90
22288;DHT22;11312;51.464;6.968;2024-01-30T01:07:52;10.20;99.90
22288;DHT22;11312;51.464;6.968;2024-01-30T01:10:18;10.20;99.90
22288;DHT22;11312;51.464;6.968;2024-01-30T01:12:44;10.20;99.90
22288;DHT22;11312;51.464;6.968;2024-01-30T01:15:09;10.20;99.90
22288;DHT22;11312;51.464;6.968;2024-01-30T01:17:36;10.20;99.90
22288;DHT22;11312;51.464;6.968;2024-01-30T01:20:02;10.10;99.90
22288;DHT22;11312;51.464;6.968;2024-01-30T01:22:29;10.10;99.90
22288;DHT22;11312;51.464;6.968;2024-01-30T01:24:54;10.20;99.90
22288;DHT22;11312;51.464;6.968;2024-01-30T01:27:20;10.20;99.90
22288;DHT22;11312;51.464;6.968;2024-01-30T01:29:46;10.10;99.90
22288;DHT22;11312;51.464;6.968;2024-01-30T01:32:12;10.10;99.90
22288;DHT22;11312;51.464;6.968;2024-01-30T01:34:37;10.10;99.90
22288;DHT22;11312;51.464;6.968;2024-01-30T01:37:03;10.20;99.90
22288;DHT22;11312;51.464;6.968;2024-01-30T01:39:28;10.10;99.90
22288;DHT22;11312;51.464;6.968;2024-01-30T01:41:54;10.10;99.90
22288;DHT22;11312;51.464;6.968;2024-01-30T01:44:19;10.10;99.90
22288;DHT22;11312;51.464;6.968;2024-01-30T01:46:45;10.20;99.90
22288;DHT22;11312;51.464;6.968;2024-01-30T01:49:11;10.10;99.90
22288;DHT22;11312;51.464;6.968;2024-01-30T01:51:37;10.10;99.90
22288;DHT22;11312;51.464;6.968;2024-01-30T01:54:06;10.00;99.90
22288;DHT22;11312;51.464;6.968;2024-01-30T01:56:33;10.00;99.90
22288;DHT22;11312;51.464;6.968;2024-01-30T01:59:05;10.00;99.90
22288;DHT22;11312;51.464;6.968;2024-01-30T02:01:32;10.10;99.90
22288;DHT22;11312;51.464;6.968;2024-01-30T02:03:59;10.10;99.90
22288;DHT22;11312;51.464;6.968;2024-01-30T02:06:24;10.10;99.90
22288;DHT22;11312;51.464;6.968;2024-01-30T02:08:50;10.10;99.90
22288;DHT22;11312;51.464;6.968;2024-01-30T02:11:16;10.00;99.90
22288;DHT22;11312;51.464;6.968;2024-01-30T02:13:42;10.00;99.90
22288;DHT22;11312;51.464;6.968;2024-01-30T02:16:07;10.00;99.90
22288;DHT22;11312;51.464;6.968;2024-01-30T02:18:33;10.00;99.90
22288;DHT22;11312;51.464;6.968;2024-01-30T02:23:30;10.00;99.90
22288;DHT22;11312;51.464;6.968;2024-01-30T02:25:56;10.10;99.90
22288;DHT22;11312;51.464;6.968;2024-01-30T02:28:22;10.00;99.90
22288;DHT22;11312;51.464;6.968;2024-01-30T02:30:47;10.00;99.90
22288;DHT22;11312;51.464;6.968;2024-01-30T02:33:13;9.50;99.90
22288;DHT22;11312;51.464;6.968;2024-01-30T02:35:39;10.10;99.90
22288;DHT22;11312;51.464;6.968;2024-01-30T02:38:04;10.10;99.90
22288;DHT22;11312;51.464;6.968;2024-01-30T02:40:31;10.00;99.90
22288;DHT22;11312;51.464;6.968;2024-01-30T02:42:57;10.10;99.90
22288;DHT22;11312;51.464;6.968;2024-01-30T02:45:23;10.00;99.90
22288;DHT22;11312;51.464;6.968;2024-01-30T02:47:48;10.00;99.90
22288;DHT22;11312;51.464;6.968;2024-01-30T02:50:14;10.00;99.90
22288;DHT22;11312;51.464;6.968;2024-01-30T02:52:40;10.00;99.90
22288;DHT22;11312;51.464;6.968;2024-01-30T02:55:06;10.10;99.90
22288;DHT22;11312;51.464;6.968;2024-01-30T02:57:32;10.00;99.90
22288;DHT22;11312;51.464;6.968;2024-01-30T02:59:57;10.00;99.90
22288;DHT22;11312;51.464;6.968;2024-01-30T03:02:23;10.00;99.90
22288;DHT22;11312;51.464;6.968;2024-01-30T03:04:48;9.90;99.90
22288;DHT22;11312;51.464;6.968;2024-01-30T03:07:14;10.00;99.90
22288;DHT22;11312;51.464;6.968;2024-01-30T03:09:41;10.10;99.90
22288;DHT22;11312;51.464;6.968;2024-01-30T03:12:08;10.00;99.90
22288;DHT22;11312;51.464;6.968;2024-01-30T03:14:34;10.10;99.90
22288;DHT22;11312;51.464;6.968;2024-01-30T03:16:59;10.00;99.90
22288;DHT22;11312;51.464;6.968;2024-01-30T03:19:25;10.00;99.90
22288;DHT22;11312;51.464;6.968;2024-01-30T03:21:51;10.00;99.90
22288;DHT22;11312;51.464;6.968;2024-01-30T03:24:16;10.00;99.90
22288;DHT22;11312;51.464;6.968;2024-01-30T03:26:43;10.00;99.90
22288;DHT22;11312;51.464;6.968;2024-01-30T03:29:08;10.00;99.90
22288;DHT22;11312;51.464;6.968;2024-01-30T03:31:34;10.00;99.90
22288;DHT22;11312;51.464;6.968;2024-01-30T03:34:00;9.90;99.90
22288;DHT22;11312;51.464;6.968;2024-01-30T03:36:26;10.00;99.90
22288;DHT22;11312;51.464;6.968;2024-01-30T03:38:51;10.00;99.90
22288;DHT22;11312;51.464;6.968;2024-01-30T03:41:17;9.90;99.90
22288;DHT22;11312;51.464;6.968;2024-01-30T03:43:42;9.90;99.90
22288;DHT22;11312;51.464;6.968;2024-01-30T03:46:08;9.90;99.90
22288;DHT22;11312;51.464;6.968;2024-01-30T03:48:33;9.90;99.90
22288;DHT22;11312;51.464;6.968;2024-01-30T03:50:59;10.00;99.90
22288;DHT22;11312;51.464;6.968;2024-01-30T03:53:24;9.90;99.90
22288;DHT22;11312;51.464;6.968;2024-01-30T03:55:50;9.90;99.90
22288;DHT22;11312;51.464;6.968;2024-01-30T03:58:16;9.90;99.90
22288;DHT22;11312;51.464;6.968;2024-01-30T04:00:42;9.90;99.90
22288;DHT22;11312;51.464;6.968;2024-01-30T04:03:07;10.00;99.90
22288;DHT22;11312;51.464;6.968;2024-01-30T04:05:33;10.20;99.90
22288;DHT22;11312;51.464;6.968;2024-01-30T04:07:59;10.00;99.90
22288;DHT22;11312;51.464;6.968;2024-01-30T04:10:24;9.90;99.90
22288;DHT22;11312;51.464;6.968;2024-01-30T04:12:51;9.90;99.90
22288;DHT22;11312;51.464;6.968;2024-01-30T04:15:17;9.90;99.90
22288;DHT22;11312;51.464;6.968;2024-01-30T04:17:44;9.80;99.90
22288;DHT22;11312;51.464;6.968;2024-01-30T04:20:16;9.80;99.90
22288;DHT22;11312;51.464;6.968;2024-01-30T04:22:43;9.90;99.90
22288;DHT22;11312;51.464;6.968;2024-01-30T04:25:09;10.00;99.90
22288;DHT22;11312;51.464;6.968;2024-01-30T04:27:35;9.90;99.90
22288;DHT22;11312;51.464;6.968;2024-01-30T04:30:01;10.00;99.90
22288;DHT22;11312;51.464;6.968;2024-01-30T04:32:26;10.00;99.90
22288;DHT22;11312;51.464;6.968;2024-01-30T04:34:52;10.00;99.90
22288;DHT22;11312;51.464;6.968;2024-01-30T04:37:17;10.10;99.90
22288;DHT22;11312;51.464;6.968;2024-01-30T04:39:43;10.00;99.90
22288;DHT22;11312;51.464;6.968;2024-01-30T04:42:09;10.00;99.90
22288;DHT22;11312;51.464;6.968;2024-01-30T04:44:35;10.00;99.90
22288;DHT22;11312;51.464;6.968;2024-01-30T04:47:00;10.00;99.90
22288;DHT22;11312;51.464;6.968;2024-01-30T04:49:27;10.00;99.90
22288;DHT22;11312;51.464;6.968;2024-01-30T04:51:54;9.90;99.90
22288;DHT22;11312;51.464;6.968;2024-01-30T04:54:20;9.90;99.90
22288;DHT22;11312;51.464;6.968;2024-01-30T04:56:45;9.90;99.90
22288;DHT22;11312;51.464;6.968;2024-01-30T04:59:11;9.90;99.90
22288;DHT22;11312;51.464;6.968;2024-01-30T05:01:37;9.80;99.90
22288;DHT22;11312;51.464;6.968;2024-01-30T05:04:03;9.70;99.90
22288;DHT22;11312;51.464;6.968;2024-01-30T05:06:29;9.70;99.90
22288;DHT22;11312;51.464;6.968;2024-01-30T05:08:55;9.10;99.90
22288;DHT22;11312;51.464;6.968;2024-01-30T05:11:20;9.90;99.90
22288;DHT22;11312;51.464;6.968;2024-01-30T05:13:46;9.90;99.90
22288;DHT22;11312;51.464;6.968;2024-01-30T05:16:13;9.90;99.90
22288;DHT22;11312;51.464;6.968;2024-01-30T05:18:38;9.90;99.90
22288;DHT22;11312;51.464;6.968;2024-01-30T05:21:05;10.00;99.90
22288;DHT22;11312;51.464;6.968;2024-01-30T05:23:30;10.10;99.90
22288;DHT22;11312;51.464;6.968;2024-01-30T05:25:56;10.00;99.90
22288;DHT22;11312;51.464;6.968;2024-01-30T05:28:22;10.00;99.90
22288;DHT22;11312;51.464;6.968;2024-01-30T05:30:47;10.00;99.90
22288;DHT22;11312;51.464;6.968;2024-01-30T05:33:13;9.90;99.90
22288;DHT22;11312;51.464;6.968;2024-01-30T05:35:39;9.90;99.90
22288;DHT22;11312;51.464;6.968;2024-01-30T05:38:04;9.80;99.90
22288;DHT22;11312;51.464;6.968;2024-01-30T05:40:33;9.90;99.90
22288;DHT22;11312;51.464;6.968;2024-01-30T05:42:58;9.80;99.90
22288;DHT22;11312;51.464;6.968;2024-01-30T05:45:28;9.80;99.90
22288;DHT22;11312;51.464;6.968;2024-01-30T05:47:53;9.70;99.90
22288;DHT22;11312;51.464;6.968;2024-01-30T05:50:19;9.70;99.90
22288;DHT22;11312;51.464;6.968;2024-01-30T05:52:45;9.90;99.90
22288;DHT22;11312;51.464;6.968;2024-01-30T05:55:12;9.80;99.90
22288;DHT22;11312;51.464;6.968;2024-01-30T05:57:38;9.60;99.90
22288;DHT22;11312;51.464;6.968;2024-01-30T06:00:05;9.60;99.90
22288;DHT22;11312;51.464;6.968;2024-01-30T06:02:31;9.70;99.90
22288;DHT22;11312;51.464;6.968;2024-01-30T06:04:56;9.70;99.90
22288;DHT22;11312;51.464;6.968;2024-01-30T06:07:22;9.70;99.90
22288;DHT22;11312;51.464;6.968;2024-01-30T06:09:48;9.80;99.90
22288;DHT22;11312;51.464;6.968;2024-01-30T06:12:13;9.80;99.90
22288;DHT22;11312;51.464;6.968;2024-01-30T06:14:39;9.80;99.90
22288;DHT22;11312;51.464;6.968;2024-01-30T06:17:05;9.90;99.90
22288;DHT22;11312;51.464;6.968;2024-01-30T06:19:31;9.80;99.90
22288;DHT22;11312;51.464;6.968;2024-01-30T06:21:57;9.70;99.90
22288;DHT22;11312;51.464;6.968;2024-01-30T06:24:23;9.90;99.90
22288;DHT22;11312;51.464;6.968;2024-01-30T06:26:48;9.80;99.90
22288;DHT22;11312;51.464;6.968;2024-01-30T06:29:14;9.90;99.90
22288;DHT22;11312;51.464;6.968;2024-01-30T06:31:43;9.80;99.90
22288;DHT22;11312;51.464;6.968;2024-01-30T06:34:09;9.80;99.90
22288;DHT22;11312;51.464;6.968;2024-01-30T06:36:35;9.90;99.90
22288;DHT22;11312;51.464;6.968;2024-01-30T06:39:02;9.90;99.90
22288;DHT22;11312;51.464;6.968;2024-01-30T06:41:28;9.90;99.90
22288;DHT22;11312;51.464;6.968;2024-01-30T06:43:53;9.80;99.90
22288;DHT22;11312;51.464;6.968;2024-01-30T06:46:19;9.90;99.90
22288;DHT22;11312;51.464;6.968;2024-01-30T06:48:44;9.90;99.90
22288;DHT22;11312;51.464;6.968;2024-01-30T06:51:11;9.90;99.90
22288;DHT22;11312;51.464;6.968;2024-01-30T06:53:37;10.00;99.90
22288;DHT22;11312;51.464;6.968;2024-01-30T06:56:03;10.00;99.90
22288;DHT22;11312;51.464;6.968;2024-01-30T06:58:28;10.00;99.90
22288;DHT22;11312;51.464;6.968;2024-01-30T07:00:55;9.90;99.90
22288;DHT22;11312;51.464;6.968;2024-01-30T07:03:21;10.00;99.90
22288;DHT22;11312;51.464;6.968;2024-01-30T07:05:47;10.00;99.90
22288;DHT22;11312;51.464;6.968;2024-01-30T07:08:12;9.90;99.90
22288;DHT22;11312;51.464;6.968;2024-01-30T07:10:38;9.90;99.90
22288;DHT22;11312;51.464;6.968;2024-01-30T07:13:04;10.00;99.90
22288;DHT22;11312;51.464;6.968;2024-01-30T07:15:31;10.00;99.90
22288;DHT22;11312;51.464;6.968;2024-01-30T07:17:56;10.00;99.90
22288;DHT22;11312;51.464;6.968;2024-01-30T07:20:22;10.10;99.90
22288;DHT22;11312;51.464;6.968;2024-01-30T07:22:48;10.00;99.90
22288;DHT22;11312;51.464;6.968;2024-01-30T07:25:13;10.10;99.90
22288;DHT22;11312;51.464;6.968;2024-01-30T07:27:39;10.10;99.90
22288;DHT22;11312;51.464;6.968;2024-01-30T07:30:05;10.10;99.90
22288;DHT22;11312;51.464;6.968;2024-01-30T07:32:31;10.10;99.90
22288;DHT22;11312;51.464;6.968;2024-01-30T07:34:57;10.10;99.90
22288;DHT22;11312;51.464;6.968;2024-01-30T07:37:22;10.10;99.90
22288;DHT22;11312;51.464;6.968;2024-01-30T07:39:48;10.00;99.90
22288;DHT22;11312;51.464;6.968;2024-01-30T07:42:14;10.00;99.90
22288;DHT22;11312;51.464;6.968;2024-01-30T07:44:39;10.00;99.90
22288;DHT22;11312;51.464;6.968;2024-01-30T07:47:05;10.00;99.90
22288;DHT22;11312;51.464;6.968;2024-01-30T07:49:31;10.00;99.90
22288;DHT22;11312;51.464;6.968;2024-01-30T07:51:57;10.10;99.90
22288;DHT22;11312;51.464;6.968;2024-01-30T07:54:22;10.20;99.90
22288;DHT22;11312;51.464;6.968;2024-01-30T07:56:48;10.10;99.90
22288;DHT22;11312;51.464;6.968;2024-01-30T07:59:14;10.10;99.90
22288;DHT22;11312;51.464;6.968;2024-01-30T08:01:40;10.20;99.90
22288;DHT22;11312;51.464;6.968;2024-01-30T08:04:05;10.20;99.90
22288;DHT22;11312;51.464;6.968;2024-01-30T08:06:31;10.20;99.90
22288;DHT22;11312;51.464;6.968;2024-01-30T08:08:57;10.20;99.90
22288;DHT22;11312;51.464;6.968;2024-01-30T08:11:24;10.20;99.90
22288;DHT22;11312;51.464;6.968;2024-01-30T08:13:52;10.20;99.90
22288;DHT22;11312;51.464;6.968;2024-01-30T08:16:18;10.20;99.90
22288;DHT22;11312;51.464;6.968;2024-01-30T08:18:43;10.30;99.90
22288;DHT22;11312;51.464;6.968;2024-01-30T08:21:09;10.30;99.90
22288;DHT22;11312;51.464;6.968;2024-01-30T08:23:35;10.40;99.90
22288;DHT22;11312;51.464;6.968;2024-01-30T08:26:00;10.40;99.90
22288;DHT22;11312;51.464;6.968;2024-01-30T08:28:26;10.30;99.90
22288;DHT22;11312;51.464;6.968;2024-01-30T08:30:52;10.30;99.90
22288;DHT22;11312;51.464;6.968;2024-01-30T08:33:17;10.40;99.90
22288;DHT22;11312;51.464;6.968;2024-01-30T08:35:43;10.30;99.90
22288;DHT22;11312;51.464;6.968;2024-01-30T08:38:09;10.40;99.90
22288;DHT22;11312;51.464;6.968;2024-01-30T08:40:34;11.50;99.90
22288;DHT22;11312;51.464;6.968;2024-01-30T08:43:00;10.50;99.90
22288;DHT22;11312;51.464;6.968;2024-01-30T08:45:26;10.50;99.90
22288;DHT22;11312;51.464;6.968;2024-01-30T08:47:51;10.90;99.90
22288;DHT22;11312;51.464;6.968;2024-01-30T08:50:17;10.50;99.90
22288;DHT22;11312;51.464;6.968;2024-01-30T08:52:42;10.60;99.90
22288;DHT22;11312;51.464;6.968;2024-01-30T08:55:08;10.50;99.90
22288;DHT22;11312;51.464;6.968;2024-01-30T08:57:34;10.60;99.90
22288;DHT22;11312;51.464;6.968;2024-01-30T09:00:00;10.60;99.90
22288;DHT22;11312;51.464;6.968;2024-01-30T09:02:27;11.20;99.90
22288;DHT22;11312;51.464;6.968;2024-01-30T09:04:53;10.60;99.90
22288;DHT22;11312;51.464;6.968;2024-01-30T09:07:18;10.70;99.90
22288;DHT22;11312;51.464;6.968;2024-01-30T09:09:44;10.80;99.90
22288;DHT22;11312;51.464;6.968;2024-01-30T09:12:10;10.70;99.90
22288;DHT22;11312;51.464;6.968;2024-01-30T09:14:39;10.80;99.90
22288;DHT22;11312;51.464;6.968;2024-01-30T09:17:05;10.80;99.90
22288;DHT22;11312;51.464;6.968;2024-01-30T09:19:31;10.70;99.90
22288;DHT22;11312;51.464;6.968;2024-01-30T09:21:56;10.80;99.90
22288;DHT22;11312;51.464;6.968;2024-01-30T09:24:22;10.80;99.90
22288;DHT22;11312;51.464;6.968;2024-01-30T09:26:47;10.70;99.90
22288;DHT22;11312;51.464;6.968;2024-01-30T09:29:13;10.80;99.90
22288;DHT22;11312;51.464;6.968;2024-01-30T09:31:39;10.90;99.90
22288;DHT22;11312;51.464;6.968;2024-01-30T09:34:04;11.00;99.90
22288;DHT22;11312;51.464;6.968;2024-01-30T09:36:30;11.10;99.90
22288;DHT22;11312;51.464;6.968;2024-01-30T09:38:55;11.10;99.90
22288;DHT22;11312;51.464;6.968;2024-01-30T09:41:23;11.10;99.90
22288;DHT22;11312;51.464;6.968;2024-01-30T09:43:50;11.20;99.90
22288;DHT22;11312;51.464;6.968;2024-01-30T09:46:17;11.20;99.90
22288;DHT22;11312;51.464;6.968;2024-01-30T09:48:46;11.30;99.90
22288;DHT22;11312;51.464;6.968;2024-01-30T09:51:13;11.50;99.90
22288;DHT22;11312;51.464;6.968;2024-01-30T09:53:41;11.60;99.90
22288;DHT22;11312;51.464;6.968;2024-01-30T09:56:07;11.60;99.90
22288;DHT22;11312;51.464;6.968;2024-01-30T09:58:33;11.80;99.90
22288;DHT22;11312;51.464;6.968;2024-01-30T10:00:58;11.80;99.90
22288;DHT22;11312;51.464;6.968;2024-01-30T10:03:24;11.90;99.90
22288;DHT22;11312;51.464;6.968;2024-01-30T10:05:51;12.00;99.90
22288;DHT22;11312;51.464;6.968;2024-01-30T10:08:18;12.10;99.90
22288;DHT22;11312;51.464;6.968;2024-01-30T10:10:48;12.20;99.90
22288;DHT22;11312;51.464;6.968;2024-01-30T10:13:15;12.30;99.90
22288;DHT22;11312;51.464;6.968;2024-01-30T10:15:41;12.30;99.90
22288;DHT22;11312;51.464;6.968;2024-01-30T10:18:08;12.50;99.90
22288;DHT22;11312;51.464;6.968;2024-01-30T10:20:34;12.50;99.90
22288;DHT22;11312;51.464;6.968;2024-01-30T10:22:59;12.50;99.90
22288;DHT22;11312;51.464;6.968;2024-01-30T10:25:26;12.40;99.90
22288;DHT22;11312;51.464;6.968;2024-01-30T10:27:55;12.30;99.90
22288;DHT22;11312;51.464;6.968;2024-01-30T10:30:21;12.20;99.90
22288;DHT22;11312;51.464;6.968;2024-01-30T10:32:47;12.20;99.90
22288;DHT22;11312;51.464;6.968;2024-01-30T10:35:13;12.20;99.90
22288;DHT22;11312;51.464;6.968;2024-01-30T10:37:39;12.10;99.90
22288;DHT22;11312;51.464;6.968;2024-01-30T10:40:05;12.10;99.90
22288;DHT22;11312;51.464;6.968;2024-01-30T10:42:36;12.10;99.90
22288;DHT22;11312;51.464;6.968;2024-01-30T10:45:11;12.20;99.90
22288;DHT22;11312;51.464;6.968;2024-01-30T10:47:48;12.20;99.90
22288;DHT22;11312;51.464;6.968;2024-01-30T10:50:14;12.30;99.90
22288;DHT22;11312;51.464;6.968;2024-01-30T10:52:41;12.20;99.90
22288;DHT22;11312;51.464;6.968;2024-01-30T10:55:08;12.30;99.90
22288;DHT22;11312;51.464;6.968;2024-01-30T10:57:37;12.30;99.90
22288;DHT22;11312;51.464;6.968;2024-01-30T11:00:08;12.30;99.90
22288;DHT22;11312;51.464;6.968;2024-01-30T11:02:38;12.30;99.90
22288;DHT22;11312;51.464;6.968;2024-01-30T11:05:05;12.20;99.90
22288;DHT22;11312;51.464;6.968;2024-01-30T11:07:30;12.30;99.90
22288;DHT22;11312;51.464;6.968;2024-01-30T11:12:29;12.30;99.90
22288;DHT22;11312;51.464;6.968;2024-01-30T11:15:21;12.40;99.90
22288;DHT22;11312;51.464;6.968;2024-01-30T11:20:22;12.60;99.90
22288;DHT22;11312;51.464;6.968;2024-01-30T11:22:51;12.70;99.90
22288;DHT22;11312;51.464;6.968;2024-01-30T11:25:19;12.70;99.90
22288;DHT22;11312;51.464;6.968;2024-01-30T11:27:45;12.60;99.90
22288;DHT22;11312;51.464;6.968;2024-01-30T11:30:24;12.60;99.90
22288;DHT22;11312;51.464;6.968;2024-01-30T11:35:34;12.40;99.90
22288;DHT22;11312;51.464;6.968;2024-01-30T11:38:00;12.40;99.90
22288;DHT22;11312;51.464;6.968;2024-01-30T11:40:28;12.40;99.90
22288;DHT22;11312;51.464;6.968;2024-01-30T11:42:55;12.30;99.90
22288;DHT22;11312;51.464;6.968;2024-01-30T11:45:21;12.40;99.90
22288;DHT22;11312;51.464;6.968;2024-01-30T11:47:47;12.30;99.90
22288;DHT22;11312;51.464;6.968;2024-01-30T11:50:12;12.30;99.90
22288;DHT22;11312;51.464;6.968;2024-01-30T11:52:39;12.30;99.90
22288;DHT22;11312;51.464;6.968;2024-01-30T11:55:05;12.10;99.90
22288;DHT22;11312;51.464;6.968;2024-01-30T11:57:31;12.20;99.90
22288;DHT22;11312;51.464;6.968;2024-01-30T11:59:57;12.20;99.90
22288;DHT22;11312;51.464;6.968;2024-01-30T12:02:22;12.20;99.90
22288;DHT22;11312;51.464;6.968;2024-01-30T12:04:48;12.20;99.90
22288;DHT22;11312;51.464;6.968;2024-01-30T12:07:14;12.10;99.90
22288;DHT22;11312;51.464;6.968;2024-01-30T12:09:42;12.10;99.90
22288;DHT22;11312;51.464;6.968;2024-01-30T12:12:08;12.10;99.90
22288;DHT22;11312;51.464;6.968;2024-01-30T12:14:39;12.10;99.90
22288;DHT22;11312;51.464;6.968;2024-01-30T12:17:05;12.20;99.90
22288;DHT22;11312;51.464;6.968;2024-01-30T12:19:30;12.20;99.90
22288;DHT22;11312;51.464;6.968;2024-01-30T12:21:59;12.20;99.90
22288;DHT22;11312;51.464;6.968;2024-01-30T12:24:28;12.20;99.90
22288;DHT22;11312;51.464;6.968;2024-01-30T12:26:58;12.20;99.90
22288;DHT22;11312;51.464;6.968;2024-01-30T12:29:24;12.10;99.90
22288;DHT22;11312;51.464;6.968;2024-01-30T12:31:53;12.20;99.90
22288;DHT22;11312;51.464;6.968;2024-01-30T12:34:19;12.20;99.90
22288;DHT22;11312;51.464;6.968;2024-01-30T12:36:47;12.20;99.90
22288;DHT22;11312;51.464;6.968;2024-01-30T12:39:14;12.20;99.90
22288;DHT22;11312;51.464;6.968;2024-01-30T12:41:40;12.20;99.90
22288;DHT22;11312;51.464;6.968;2024-01-30T12:44:06;12.10;99.90
22288;DHT22;11312;51.464;6.968;2024-01-30T12:46:34;12.20;99.90
22288;DHT22;11312;51.464;6.968;2024-01-30T12:48:59;12.20;99.90
22288;DHT22;11312;51.464;6.968;2024-01-30T12:51:25;12.10;99.90
22288;DHT22;11312;51.464;6.968;2024-01-30T12:53:51;12.10;99.90
22288;DHT22;11312;51.464;6.968;2024-01-30T12:56:16;12.20;99.90
22288;DHT22;11312;51.464;6.968;2024-01-30T12:58:42;12.20;99.90
22288;DHT22;11312;51.464;6.968;2024-01-30T13:01:08;12.10;99.90
22288;DHT22;11312;51.464;6.968;2024-01-30T13:03:34;12.10;99.90
22288;DHT22;11312;51.464;6.968;2024-01-30T13:06:00;12.10;99.90
22288;DHT22;11312;51.464;6.968;2024-01-30T13:08:26;12.20;99.90
22288;DHT22;11312;51.464;6.968;2024-01-30T13:10:51;12.10;99.90
22288;DHT22;11312;51.464;6.968;2024-01-30T13:13:17;12.10;99.90
22288;DHT22;11312;51.464;6.968;2024-01-30T13:15:42;12.10;99.90
22288;DHT22;11312;51.464;6.968;2024-01-30T13:18:08;12.10;99.90
22288;DHT22;11312;51.464;6.968;2024-01-30T13:20:33;12.10;99.90
22288;DHT22;11312;51.464;6.968;2024-01-30T13:22:59;12.00;99.90
22288;DHT22;11312;51.464;6.968;2024-01-30T13:25:24;12.10;99.90
22288;DHT22;11312;51.464;6.968;2024-01-30T13:27:50;12.00;99.90
22288;DHT22;11312;51.464;6.968;2024-01-30T13:30:16;12.00;99.90
22288;DHT22;11312;51.464;6.968;2024-01-30T13:32:41;12.10;99.90
22288;DHT22;11312;51.464;6.968;2024-01-30T13:35:09;12.10;99.90
22288;DHT22;11312;51.464;6.968;2024-01-30T13:37:35;12.10;99.90
22288;DHT22;11312;51.464;6.968;2024-01-30T13:40:05;12.10;99.90
22288;DHT22;11312;51.464;6.968;2024-01-30T13:42:34;12.10;99.90
22288;DHT22;11312;51.464;6.968;2024-01-30T13:45:00;12.00;99.90
22288;DHT22;11312;51.464;6.968;2024-01-30T13:47:25;12.10;99.90
22288;DHT22;11312;51.464;6.968;2024-01-30T13:49:51;12.00;99.90
22288;DHT22;11312;51.464;6.968;2024-01-30T13:52:18;12.10;99.90
22288;DHT22;11312;51.464;6.968;2024-01-30T13:54:43;12.10;99.90
22288;DHT22;11312;51.464;6.968;2024-01-30T13:57:09;12.20;99.90
22288;DHT22;11312;51.464;6.968;2024-01-30T13:59:35;12.20;99.90
22288;DHT22;11312;51.464;6.968;2024-01-30T14:02:01;12.20;99.90
22288;DHT22;11312;51.464;6.968;2024-01-30T14:04:26;12.30;99.90
22288;DHT22;11312;51.464;6.968;2024-01-30T14:06:52;12.60;99.90
22288;DHT22;11312;51.464;6.968;2024-01-30T14:09:17;12.50;99.90
22288;DHT22;11312;51.464;6.968;2024-01-30T14:11:43;12.40;99.90
22288;DHT22;11312;51.464;6.968;2024-01-30T14:14:09;12.50;99.90
22288;DHT22;11312;51.464;6.968;2024-01-30T14:16:34;12.60;99.90
22288;DHT22;11312;51.464;6.968;2024-01-30T14:19:00;12.70;99.90
22288;DHT22;11312;51.464;6.968;2024-01-30T14:21:25;12.70;99.90
22288;DHT22;11312;51.464;6.968;2024-01-30T14:23:51;12.60;99.90
22288;DHT22;11312;51.464;6.968;2024-01-30T14:26:16;12.60;99.90
22288;DHT22;11312;51.464;6.968;2024-01-30T14:28:43;12.60;99.90
22288;DHT22;11312;51.464;6.968;2024-01-30T14:31:09;12.50;99.90
22288;DHT22;11312;51.464;6.968;2024-01-30T14:33:34;12.50;99.90
22288;DHT22;11312;51.464;6.968;2024-01-30T14:36:00;12.40;99.90
22288;DHT22;11312;51.464;6.968;2024-01-30T14:38:25;12.40;99.90
22288;DHT22;11312;51.464;6.968;2024-01-30T14:40:51;12.30;99.90
22288;DHT22;11312;51.464;6.968;2024-01-30T14:43:17;12.30;99.90
22288;DHT22;11312;51.464;6.968;2024-01-30T14:45:42;12.40;99.90
22288;DHT22;11312;51.464;6.968;2024-01-30T14:48:11;12.30;99.90
22288;DHT22;11312;51.464;6.968;2024-01-30T14:50:36;12.30;99.90
22288;DHT22;11312;51.464;6.968;2024-01-30T14:53:03;12.40;99.90
22288;DHT22;11312;51.464;6.968;2024-01-30T14:55:28;12.20;99.90
22288;DHT22;11312;51.464;6.968;2024-01-30T14:57:54;12.30;99.90
22288;DHT22;11312;51.464;6.968;2024-01-30T15:00:20;12.30;99.90
22288;DHT22;11312;51.464;6.968;2024-01-30T15:02:45;12.20;99.90
22288;DHT22;11312;51.464;6.968;2024-01-30T15:05:14;12.30;99.90
22288;DHT22;11312;51.464;6.968;2024-01-30T15:07:39;12.10;99.90
22288;DHT22;11312;51.464;6.968;2024-01-30T15:10:17;12.10;99.90
22288;DHT22;11312;51.464;6.968;2024-01-30T15:12:43;12.10;99.90
22288;DHT22;11312;51.464;6.968;2024-01-30T15:15:08;12.10;99.90
22288;DHT22;11312;51.464;6.968;2024-01-30T15:17:34;12.10;99.90
22288;DHT22;11312;51.464;6.968;2024-01-30T15:20:00;12.10;99.90
22288;DHT22;11312;51.464;6.968;2024-01-30T15:22:26;12.00;99.90
22288;DHT22;11312;51.464;6.968;2024-01-30T15:24:51;11.90;99.90
22288;DHT22;11312;51.464;6.968;2024-01-30T15:27:17;11.80;99.90
22288;DHT22;11312;51.464;6.968;2024-01-30T15:29:45;11.70;99.90
22288;DHT22;11312;51.464;6.968;2024-01-30T15:32:10;11.70;99.90
22288;DHT22;11312;51.464;6.968;2024-01-30T15:34:36;11.60;99.90
22288;DHT22;11312;51.464;6.968;2024-01-30T15:37:02;11.60;99.90